In Rescue
 
Open Full Screen Window  High Contrast Mode
January 28, 2020 10:01 PM CST
Weather Information
Wind Direction
  ---
Wind Speed
  00 kt (0 mph)
Wind Gust
  00 kt (0 mph)
Altimeter
30.14 in
Visibility
10 SM
Temperature
-12° C
10° F
Dewpoint
-14° C
F
Humidity
85%
1hr Rain Fall
00.00 in.
24hr Rain Fall
00.00 in.
Sky Condition
Overcast @ 1,900 ft
MVFR

METAR KAIT 290401Z AUTO 00000KT 10SM OVC019 M12/M14 A3014 RMK AO2

FAA Disclaimer: The data displayed is for advisory purposes only and is not to be used for flight planning or operations.